Time;durP1;ratioP1;P1;durP2;ratioP2;P2;SDS_P1;SDS_P2;PMS_P1;PMS_P2;Temp;Humidity;BMP_temperature;BMP_pressure;BME280_temperature;BME280_humidity;BME280_pressure;Samples;Min_cycle;Max_cycle;Signal;HPM_P1;HPM_P2
2022/12/12 00:00:53;;;;;;;32.28;17.27;;;2.20;75.00;;;;;;5054632;28;20200;-72
2022/12/12 00:03:29;;;;;;;28.10;16.55;;;2.20;75.00;;;;;;5058004;28;20568;-70
2022/12/12 00:05:57;;;;;;;26.45;15.05;;;2.20;75.00;;;;;;5055594;28;20200;-72
2022/12/12 00:08:25;;;;;;;32.88;16.77;;;2.20;75.00;;;;;;5054258;28;20262;-73
2022/12/12 00:10:53;;;;;;;35.75;17.02;;;2.20;75.10;;;;;;5054542;28;20218;-74
2022/12/12 00:13:21;;;;;;;36.10;18.48;;;2.20;75.10;;;;;;5055983;28;20316;-72
2022/12/12 00:15:49;;;;;;;36.78;18.30;;;2.20;75.10;;;;;;5051495;28;20261;-72
2022/12/12 00:18:17;;;;;;;30.27;16.75;;;2.20;75.10;;;;;;5052139;28;20224;-71
2022/12/12 00:20:51;;;;;;;30.17;16.10;;;2.20;75.20;;;;;;5052774;28;20230;-71
2022/12/12 00:23:19;;;;;;;31.77;16.58;;;2.20;75.20;;;;;;5053071;28;20401;-69
2022/12/12 00:25:54;;;;;;;34.90;18.20;;;2.20;75.20;;;;;;5052706;28;20208;-71
2022/12/12 00:28:22;;;;;;;34.63;17.95;;;2.30;75.20;;;;;;5054763;28;20226;-72
2022/12/12 00:30:50;;;;;;;35.13;18.25;;;2.30;75.20;;;;;;5054362;28;20639;-73
2022/12/12 00:33:19;;;;;;;30.65;17.08;;;2.30;75.20;;;;;;5058428;28;20204;-70
2022/12/12 00:35:52;;;;;;;34.25;18.92;;;2.30;75.10;;;;;;5053884;28;20200;-70
2022/12/12 00:38:22;;;;;;;30.25;16.60;;;2.30;75.10;;;;;;5056974;28;20288;-70
2022/12/12 00:40:56;;;;;;;31.60;18.17;;;2.30;75.10;;;;;;5053547;28;20204;-72
2022/12/12 00:43:24;;;;;;;29.38;16.65;;;2.30;75.10;;;;;;5059246;28;20192;-71
2022/12/12 00:45:53;;;;;;;30.73;16.35;;;2.30;75.00;;;;;;5055714;28;20200;-72
2022/12/12 00:48:21;;;;;;;26.52;15.85;;;2.30;75.10;;;;;;5058745;28;20231;-72
2022/12/12 00:50:51;;;;;;;31.80;17.50;;;2.30;75.10;;;;;;5057799;28;20639;-71
2022/12/12 00:53:19;;;;;;;27.05;15.15;;;2.30;75.00;;;;;;5059022;28;20205;-72
2022/12/12 00:55:55;;;;;;;33.90;17.80;;;2.20;74.90;;;;;;5058612;28;20238;-73
2022/12/12 00:58:23;;;;;;;32.47;16.92;;;2.20;75.10;;;;;;5058338;28;20215;-71
2022/12/12 01:00:51;;;;;;;26.45;14.95;;;2.20;75.10;;;;;;5058687;28;21177;-70
2022/12/12 01:03:20;;;;;;;30.88;16.58;;;2.20;75.20;;;;;;5056953;28;20260;-70
2022/12/12 01:05:48;;;;;;;34.20;17.90;;;2.20;75.20;;;;;;5059039;28;20200;-70
2022/12/12 01:08:18;;;;;;;31.48;17.73;;;2.20;75.20;;;;;;5060026;28;20220;-70
2022/12/12 01:10:46;;;;;;;34.05;17.20;;;2.20;75.30;;;;;;5058992;28;20567;-71
2022/12/12 01:13:14;;;;;;;32.55;17.10;;;2.20;75.30;;;;;;5058936;28;20204;-72
2022/12/12 01:15:42;;;;;;;36.47;17.73;;;2.20;75.20;;;;;;5059558;28;20268;-71
2022/12/12 01:18:10;;;;;;;37.10;18.08;;;2.20;75.20;;;;;;5055961;28;20227;-73
2022/12/12 01:20:38;;;;;;;30.60;16.75;;;2.20;75.40;;;;;;5055368;28;20200;-72
2022/12/12 01:23:06;;;;;;;33.38;17.77;;;2.20;75.40;;;;;;5060562;28;20230;-73
2022/12/12 01:25:35;;;;;;;31.00;16.23;;;2.30;75.40;;;;;;5056762;28;20765;-72
2022/12/12 01:28:04;;;;;;;33.30;18.52;;;2.30;75.40;;;;;;5074860;28;20233;-71
2022/12/12 01:30:32;;;;;;;32.90;17.73;;;2.30;75.40;;;;;;5057956;28;20196;-72
2022/12/12 01:33:00;;;;;;;36.50;17.73;;;2.30;75.40;;;;;;5055768;28;20281;-72
2022/12/12 01:35:29;;;;;;;33.20;16.55;;;2.20;75.20;;;;;;5058589;28;20269;-72
2022/12/12 01:37:57;;;;;;;31.90;16.63;;;2.20;75.20;;;;;;5057781;28;20212;-71
2022/12/12 01:40:27;;;;;;;30.02;17.30;;;2.20;75.40;;;;;;5058230;28;20204;-72
2022/12/12 01:42:57;;;;;;;32.97;17.23;;;2.20;75.50;;;;;;5057402;28;20204;-72
2022/12/12 01:46:14;;;;;;;37.58;16.98;;;2.20;75.50;;;;;;5060519;28;20208;-71
2022/12/12 01:48:45;;;;;;;32.95;18.23;;;2.30;75.50;;;;;;5058959;28;20299;-71
2022/12/12 01:51:17;;;;;;;33.28;17.30;;;2.30;75.50;;;;;;5055879;28;20753;-71
2022/12/12 01:53:45;;;;;;;39.03;17.85;;;2.30;75.50;;;;;;5054120;28;20208;-72
2022/12/12 01:56:17;;;;;;;35.50;18.60;;;2.30;75.40;;;;;;5055812;28;20575;-72
2022/12/12 01:58:48;;;;;;;32.95;17.40;;;2.30;75.20;;;;;;5060646;28;20270;-71
2022/12/12 02:01:18;;;;;;;38.25;18.23;;;2.20;75.20;;;;;;5056497;28;20193;-71
2022/12/12 02:03:48;;;;;;;34.60;18.65;;;2.20;75.40;;;;;;5053402;28;20234;-71
2022/12/12 02:06:22;;;;;;;31.75;17.67;;;2.30;75.50;;;;;;5056355;28;20201;-72
2022/12/12 02:08:53;;;;;;;34.97;18.80;;;2.20;75.40;;;;;;5056224;28;20212;-72
2022/12/12 02:11:21;;;;;;;40.03;18.98;;;2.20;75.30;;;;;;5073237;28;20242;-71
2022/12/12 02:13:50;;;;;;;34.13;18.75;;;2.20;75.20;;;;;;5052791;28;20204;-71
2022/12/12 02:16:28;;;;;;;38.83;18.75;;;2.10;75.40;;;;;;5059708;28;20200;-72
2022/12/12 02:19:04;;;;;;;38.75;18.08;;;2.20;75.50;;;;;;5054199;28;20214;-72
2022/12/12 02:21:38;;;;;;;36.50;18.90;;;2.20;75.60;;;;;;5053354;28;20618;-71
2022/12/12 02:24:30;;;;;;;33.80;18.88;;;2.20;75.60;;;;;;5068457;28;20207;-71
2022/12/12 02:27:23;;;;;;;37.63;19.83;;;2.20;75.70;;;;;;5059016;28;20763;-71
2022/12/12 02:30:23;;;;;;;36.45;17.73;;;2.30;75.60;;;;;;5054971;28;20220;-70
2022/12/12 02:33:12;;;;;;;37.15;18.77;;;2.30;75.70;;;;;;4983876;28;20272;-71
2022/12/12 02:35:52;;;;;;;39.70;18.58;;;2.30;75.70;;;;;;5049670;28;20743;-72
2022/12/12 02:38:27;;;;;;;33.40;17.55;;;2.30;75.70;;;;;;5058210;28;20234;-70
2022/12/12 02:41:05;;;;;;;40.60;19.30;;;2.30;75.70;;;;;;5057685;28;20199;-71
2022/12/12 02:43:38;;;;;;;36.97;18.25;;;2.30;75.60;;;;;;5058088;28;20215;-71
2022/12/12 02:46:11;;;;;;;36.35;19.25;;;2.30;75.60;;;;;;5057323;28;20203;-71
2022/12/12 02:48:44;;;;;;;41.00;21.38;;;2.30;75.70;;;;;;5055555;28;20220;-70
2022/12/12 02:51:13;;;;;;;39.65;20.17;;;2.30;75.70;;;;;;5051830;28;20205;-71
2022/12/12 02:53:41;;;;;;;40.42;22.05;;;2.30;75.60;;;;;;5056307;28;20679;-71
2022/12/12 02:56:42;;;;;;;37.53;19.02;;;2.30;75.70;;;;;;5053812;28;20224;-71
2022/12/12 02:59:14;;;;;;;39.78;19.10;;;2.30;75.70;;;;;;5054312;28;20202;-71
2022/12/12 03:01:53;;;;;;;35.17;20.95;;;2.30;75.80;;;;;;5053878;28;20204;-70
2022/12/12 03:10:13;;;;;;;43.33;19.88;;;2.30;75.70;;;;;;5061447;28;20262;-72
2022/12/12 03:12:49;;;;;;;36.63;19.48;;;2.30;75.80;;;;;;5055445;28;20203;-71
2022/12/12 03:15:23;;;;;;;39.42;21.10;;;2.30;75.80;;;;;;5055369;28;20286;-71
2022/12/12 03:18:00;;;;;;;36.80;20.50;;;2.30;75.80;;;;;;5055409;28;20305;-70
2022/12/12 03:20:39;;;;;;;40.15;20.02;;;2.30;75.80;;;;;;5054020;28;20245;-70
2022/12/12 03:23:13;;;;;;;40.88;21.27;;;2.30;75.90;;;;;;5057085;28;20963;-70
2022/12/12 03:25:47;;;;;;;36.78;18.50;;;2.30;75.80;;;;;;5059599;28;20269;-70
2022/12/12 03:28:22;;;;;;;37.15;20.80;;;2.30;75.80;;;;;;5052264;28;20223;-71
2022/12/12 03:30:55;;;;;;;37.88;20.77;;;2.30;75.80;;;;;;5064927;28;20212;-72
2022/12/12 03:33:29;;;;;;;43.03;21.02;;;2.30;75.80;;;;;;5054852;28;20605;-72
2022/12/12 03:36:05;;;;;;;39.95;20.58;;;2.30;75.90;;;;;;5049103;28;20320;-72
2022/12/12 03:38:37;;;;;;;34.60;19.50;;;2.30;75.80;;;;;;5054180;28;20265;-72
2022/12/12 03:41:08;;;;;;;39.05;20.35;;;2.30;75.90;;;;;;5061767;28;20199;-72
2022/12/12 03:43:43;;;;;;;36.67;18.73;;;2.30;75.90;;;;;;5058028;28;20692;-70
2022/12/12 03:46:16;;;;;;;30.67;18.85;;;2.30;75.90;;;;;;5057010;28;20339;-70
2022/12/12 03:48:49;;;;;;;39.53;20.30;;;2.30;75.90;;;;;;5054840;28;20231;-73
2022/12/12 03:51:23;;;;;;;41.47;19.60;;;2.30;76.00;;;;;;5054424;28;20212;-70
2022/12/12 03:53:57;;;;;;;41.08;21.35;;;2.30;76.00;;;;;;5055695;28;20196;-72
2022/12/12 03:56:29;;;;;;;40.70;19.52;;;2.30;76.00;;;;;;5058936;28;20268;-72
2022/12/12 03:59:02;;;;;;;39.58;20.60;;;2.30;76.00;;;;;;5055478;28;20200;-73
2022/12/12 04:01:39;;;;;;;37.08;20.20;;;2.30;76.00;;;;;;5052015;28;20196;-70
2022/12/12 04:04:14;;;;;;;40.05;21.65;;;2.30;76.10;;;;;;5057112;28;20792;-70
2022/12/12 04:06:48;;;;;;;44.05;21.83;;;2.30;76.10;;;;;;5054746;28;20720;-70
2022/12/12 04:15:12;;;;;;;37.33;20.92;;;2.30;76.10;;;;;;5054471;28;20201;-70
2022/12/12 04:17:45;;;;;;;38.03;20.05;;;2.30;76.10;;;;;;5056539;28;20231;-72
2022/12/12 04:23:17;;;;;;;45.33;21.50;;;2.20;76.20;;;;;;5058452;28;20266;-72
2022/12/12 04:28:50;;;;;;;38.88;20.10;;;2.30;76.20;;;;;;5073948;28;20204;-71
2022/12/12 04:31:23;;;;;;;40.03;20.92;;;2.20;76.20;;;;;;5055139;28;20262;-73
2022/12/12 04:33:56;;;;;;;45.90;21.35;;;2.20;76.20;;;;;;5061108;28;20235;-72
2022/12/12 04:36:25;;;;;;;38.00;21.77;;;2.20;76.20;;;;;;5063142;28;21750;-73
2022/12/12 04:38:56;;;;;;;40.97;22.88;;;2.20;76.20;;;;;;5055778;28;20208;-71
2022/12/12 04:41:27;;;;;;;37.72;20.75;;;2.20;76.30;;;;;;5059028;28;20868;-72
2022/12/12 04:43:58;;;;;;;42.00;21.55;;;2.20;76.30;;;;;;5078415;28;20567;-71
2022/12/12 04:46:28;;;;;;;47.83;23.70;;;2.20;76.30;;;;;;5055264;28;20247;-71
2022/12/12 04:49:00;;;;;;;42.53;23.10;;;2.20;76.30;;;;;;5058190;28;20193;-72
2022/12/12 04:51:31;;;;;;;46.72;22.70;;;2.20;76.20;;;;;;5059599;28;20227;-72
2022/12/12 04:54:09;;;;;;;47.10;24.58;;;2.10;76.20;;;;;;5066075;28;20208;-71
2022/12/12 04:56:39;;;;;;;42.10;21.02;;;2.10;76.30;;;;;;5057484;28;20588;-73
2022/12/12 04:59:08;;;;;;;41.63;21.55;;;2.10;76.30;;;;;;5057119;28;20256;-73
2022/12/12 05:01:44;;;;;;;45.10;23.85;;;2.10;76.40;;;;;;5059361;28;20220;-71
2022/12/12 05:04:24;;;;;;;42.38;22.17;;;2.10;76.50;;;;;;5058308;28;20565;-74
2022/12/12 05:06:58;;;;;;;46.83;21.52;;;2.10;76.50;;;;;;5056374;28;20238;-72
2022/12/12 05:09:28;;;;;;;43.97;22.05;;;2.10;76.50;;;;;;5059758;28;20254;-72
2022/12/12 05:11:56;;;;;;;46.53;22.83;;;2.10;76.50;;;;;;5064269;28;20201;-71
2022/12/12 05:14:23;;;;;;;45.08;23.90;;;2.20;76.50;;;;;;5062707;28;20243;-72
2022/12/12 05:16:55;;;;;;;40.25;21.10;;;2.10;76.50;;;;;;5057045;28;20267;-73
2022/12/12 05:19:23;;;;;;;40.30;22.67;;;2.10;76.60;;;;;;5058164;28;20211;-72
2022/12/12 05:21:51;;;;;;;41.92;21.23;;;2.20;76.60;;;;;;5058323;28;20207;-71
2022/12/12 05:24:19;;;;;;;47.80;22.30;;;2.20;76.60;;;;;;5056818;28;20257;-71
2022/12/12 05:26:49;;;;;;;43.63;22.13;;;2.20;76.60;;;;;;5060995;28;20234;-69
2022/12/12 05:29:17;;;;;;;40.17;20.90;;;2.20;76.60;;;;;;5068080;28;20229;-71
2022/12/12 05:31:45;;;;;;;45.42;23.45;;;2.20;76.70;;;;;;5059207;28;20228;-72
2022/12/12 05:34:13;;;;;;;42.30;20.67;;;2.20;76.60;;;;;;5059564;28;20197;-71
2022/12/12 05:36:41;;;;;;;42.25;21.65;;;2.20;76.70;;;;;;5059731;28;20232;-71
2022/12/12 05:39:09;;;;;;;38.00;20.55;;;2.20;76.70;;;;;;5066189;28;20211;-71
2022/12/12 05:41:37;;;;;;;36.33;20.45;;;2.20;76.70;;;;;;5055675;28;20192;-72
2022/12/12 05:44:07;;;;;;;37.50;19.50;;;2.20;76.60;;;;;;5059265;28;20257;-71
2022/12/12 05:46:34;;;;;;;42.53;20.90;;;2.20;76.70;;;;;;5060486;28;20223;-72
2022/12/12 05:49:03;;;;;;;38.47;19.55;;;2.20;76.70;;;;;;5060070;28;20283;-72
2022/12/12 05:51:31;;;;;;;37.42;20.58;;;2.20;76.70;;;;;;5061686;28;20690;-71
2022/12/12 05:54:00;;;;;;;41.90;20.15;;;2.20;76.70;;;;;;5060386;28;20224;-70
2022/12/12 05:56:28;;;;;;;43.38;19.15;;;2.20;76.70;;;;;;5059061;28;20246;-70
2022/12/12 05:58:56;;;;;;;42.55;19.50;;;2.20;76.70;;;;;;5062575;28;20232;-71
2022/12/12 06:01:25;;;;;;;39.72;20.40;;;2.20;76.80;;;;;;5060782;28;20669;-71
2022/12/12 06:03:54;;;;;;;47.42;23.95;;;2.20;76.80;;;;;;5058861;28;20208;-71
2022/12/12 06:06:22;;;;;;;45.05;23.00;;;2.10;76.70;;;;;;5064136;28;20204;-71
2022/12/12 06:08:50;;;;;;;45.13;22.38;;;2.10;76.70;;;;;;5063124;28;20689;-72
2022/12/12 06:11:18;;;;;;;49.40;25.10;;;2.10;76.70;;;;;;5058940;28;20227;-71
2022/12/12 06:13:46;;;;;;;46.10;24.65;;;2.10;76.60;;;;;;5066017;28;20204;-72
2022/12/12 06:16:17;;;;;;;46.80;25.77;;;2.00;76.60;;;;;;5074782;28;20254;-72
2022/12/12 06:18:50;;;;;;;50.70;25.20;;;2.00;76.70;;;;;;5067891;28;20206;-72
2022/12/12 06:21:19;;;;;;;45.90;24.35;;;2.00;76.80;;;;;;5069589;28;20197;-73
2022/12/12 06:23:49;;;;;;;58.88;27.38;;;1.90;76.80;;;;;;5065772;28;20213;-71
2022/12/12 06:26:19;;;;;;;54.35;26.50;;;1.90;76.90;;;;;;5066026;28;20209;-71
2022/12/12 06:28:47;;;;;;;51.80;24.70;;;1.90;76.90;;;;;;5065690;28;20286;-72
2022/12/12 06:31:16;;;;;;;46.17;24.83;;;1.90;77.00;;;;;;5073247;28;20219;-72
2022/12/12 06:33:44;;;;;;;58.60;27.80;;;1.90;77.10;;;;;;5072376;28;20268;-72
2022/12/12 06:36:15;;;;;;;43.10;22.75;;;1.90;76.90;;;;;;5066547;28;20940;-72
2022/12/12 06:38:43;;;;;;;44.67;25.25;;;1.90;77.00;;;;;;5071887;28;20201;-72
2022/12/12 06:41:14;;;;;;;45.45;24.35;;;1.90;77.00;;;;;;5068210;28;20188;-72
2022/12/12 06:43:43;;;;;;;46.17;25.67;;;1.90;77.10;;;;;;5064624;28;20211;-72
2022/12/12 06:46:15;;;;;;;47.92;25.58;;;1.90;77.20;;;;;;5055764;28;20197;-70
2022/12/12 06:48:44;;;;;;;49.28;25.35;;;1.90;77.20;;;;;;5056971;28;20295;-71
2022/12/12 06:51:17;;;;;;;49.55;24.83;;;1.90;77.20;;;;;;5056394;28;20216;-71
2022/12/12 06:53:45;;;;;;;43.40;22.27;;;1.90;77.20;;;;;;5058910;28;20281;-72
2022/12/12 06:56:17;;;;;;;48.03;23.10;;;1.90;77.20;;;;;;5056457;28;20220;-71
2022/12/12 06:58:45;;;;;;;46.20;24.10;;;1.90;77.30;;;;;;5056173;28;20266;-71
2022/12/12 07:01:14;;;;;;;47.80;23.70;;;1.90;77.30;;;;;;5061975;28;20221;-71
2022/12/12 07:03:43;;;;;;;43.00;24.05;;;1.90;77.30;;;;;;5055716;28;20209;-72
2022/12/12 07:06:11;;;;;;;48.47;24.30;;;2.00;77.30;;;;;;5057674;28;20204;-71
2022/12/12 07:08:41;;;;;;;44.22;25.13;;;2.00;77.30;;;;;;5056672;28;20204;-70
2022/12/12 07:11:13;;;;;;;51.28;24.52;;;1.90;77.30;;;;;;5054784;28;20693;-71
2022/12/12 07:13:43;;;;;;;50.45;25.20;;;1.90;77.30;;;;;;5054793;28;20200;-71
2022/12/12 07:16:11;;;;;;;60.38;27.52;;;1.90;77.30;;;;;;5056969;28;20634;-71
2022/12/12 07:18:39;;;;;;;43.55;25.00;;;1.90;77.20;;;;;;5056182;28;20208;-71
2022/12/12 07:21:09;;;;;;;48.72;25.67;;;1.90;77.20;;;;;;5074262;28;20204;-71
2022/12/12 07:23:39;;;;;;;50.53;25.75;;;1.90;77.30;;;;;;5058894;28;20215;-71
2022/12/12 07:26:11;;;;;;;46.25;23.73;;;1.90;77.30;;;;;;5055693;28;20204;-71
2022/12/12 07:28:39;;;;;;;47.40;24.98;;;1.90;77.30;;;;;;5056461;28;20249;-71
2022/12/12 07:31:10;;;;;;;48.20;25.80;;;1.90;77.40;;;;;;5055954;28;20215;-72
2022/12/12 07:33:38;;;;;;;48.83;24.13;;;1.90;77.40;;;;;;5054327;28;20204;-72
2022/12/12 07:36:12;;;;;;;45.60;22.50;;;1.90;77.40;;;;;;5071961;28;20620;-72
2022/12/12 07:38:41;;;;;;;48.63;23.60;;;1.90;77.50;;;;;;5054895;28;20201;-71
2022/12/12 07:41:13;;;;;;;49.55;21.92;;;1.90;77.50;;;;;;5054481;28;20227;-72
2022/12/12 07:43:44;;;;;;;45.15;24.33;;;1.90;77.50;;;;;;5057736;28;20203;-70
2022/12/12 07:46:15;;;;;;;44.13;22.00;;;2.00;77.50;;;;;;5051266;28;20196;-70
2022/12/12 07:48:43;;;;;;;39.75;22.20;;;2.00;77.50;;;;;;5056362;28;20206;-69
2022/12/12 07:51:11;;;;;;;46.80;23.38;;;2.00;77.50;;;;;;5055879;28;20293;-70
2022/12/12 07:53:41;;;;;;;40.67;21.27;;;2.00;77.50;;;;;;5057207;28;20216;-69
2022/12/12 07:56:11;;;;;;;36.90;20.25;;;2.00;77.50;;;;;;5051148;28;20208;-71
2022/12/12 07:58:39;;;;;;;40.20;19.10;;;2.00;77.50;;;;;;5057231;28;20269;-72
2022/12/12 08:01:12;;;;;;;38.22;20.25;;;2.00;77.40;;;;;;5056397;28;20201;-70
2022/12/12 08:03:42;;;;;;;40.30;19.23;;;1.90;77.40;;;;;;5056312;28;20212;-68
2022/12/12 08:06:11;;;;;;;35.00;18.50;;;1.90;77.30;;;;;;5054027;28;20207;-69
2022/12/12 08:08:39;;;;;;;34.72;18.42;;;1.90;77.30;;;;;;5057309;28;20208;-70
2022/12/12 08:11:10;;;;;;;36.30;19.20;;;1.90;77.30;;;;;;5058058;28;20253;-69
2022/12/12 08:13:40;;;;;;;38.72;18.75;;;1.80;77.20;;;;;;5056356;28;20591;-72
2022/12/12 08:16:13;;;;;;;34.83;18.25;;;1.80;77.20;;;;;;5053461;28;20247;-69
2022/12/12 08:18:42;;;;;;;37.55;18.60;;;1.80;77.10;;;;;;5052023;28;20253;-68
2022/12/12 08:21:11;;;;;;;31.58;17.65;;;1.70;77.10;;;;;;5051460;28;20204;-69
2022/12/12 08:23:40;;;;;;;36.60;19.02;;;1.70;77.10;;;;;;5053179;28;20212;-69
2022/12/12 08:26:11;;;;;;;33.50;16.38;;;1.60;77.10;;;;;;5053260;28;20212;-73
2022/12/12 08:28:40;;;;;;;37.78;18.98;;;1.60;77.10;;;;;;5052264;28;20769;-71
2022/12/12 08:31:09;;;;;;;35.17;17.90;;;1.60;77.10;;;;;;5055902;28;20270;-71
2022/12/12 08:33:37;;;;;;;35.55;17.92;;;1.60;77.00;;;;;;5054775;28;20213;-68
2022/12/12 08:36:13;;;;;;;37.75;17.60;;;1.50;77.10;;;;;;5052119;28;20192;-70
2022/12/12 08:38:41;;;;;;;35.60;17.95;;;1.50;76.80;;;;;;5056522;28;20204;-68
2022/12/12 08:41:11;;;;;;;42.70;22.30;;;1.50;76.70;;;;;;5048215;28;20620;-68
2022/12/12 08:43:41;;;;;;;44.35;26.60;;;1.40;76.50;;;;;;5052141;28;20208;-68
2022/12/12 08:46:10;;;;;;;52.10;28.10;;;1.20;76.00;;;;;;5056965;28;20196;-68
2022/12/12 08:48:45;;;;;;;55.90;28.42;;;1.10;76.20;;;;;;5067360;28;20816;-70
2022/12/12 08:51:13;;;;;;;57.00;29.60;;;1.00;76.30;;;;;;5054224;28;20843;-69
2022/12/12 08:53:43;;;;;;;87.20;48.15;;;0.90;76.60;;;;;;5053463;28;20608;-69
2022/12/12 08:56:13;;;;;;;80.55;44.00;;;0.90;76.80;;;;;;5052193;28;20266;-69
2022/12/12 08:58:41;;;;;;;63.72;37.78;;;0.90;76.80;;;;;;5050640;28;20286;-70
2022/12/12 09:01:11;;;;;;;104.20;47.10;;;0.80;76.70;;;;;;5054899;28;20220;-69
2022/12/12 09:03:39;;;;;;;457.80;207.15;;;0.80;76.90;;;;;;5053855;28;20212;-70
2022/12/12 09:06:09;;;;;;;475.13;204.50;;;0.90;77.30;;;;;;5069511;28;20200;-70
2022/12/12 09:08:37;;;;;;;306.13;131.48;;;0.90;77.30;;;;;;5057178;28;20196;-69
2022/12/12 09:11:05;;;;;;;130.73;58.53;;;1.00;77.40;;;;;;5059716;28;20196;-69
2022/12/12 09:13:35;;;;;;;68.25;34.50;;;1.10;77.40;;;;;;5058000;28;20220;-70
2022/12/12 09:16:03;;;;;;;53.75;27.17;;;1.10;77.30;;;;;;5057608;28;20263;-70
2022/12/12 09:18:32;;;;;;;56.10;29.60;;;1.10;77.00;;;;;;5058119;28;20196;-70
2022/12/12 09:21:00;;;;;;;57.55;28.80;;;1.10;76.90;;;;;;5057645;28;20889;-69
2022/12/12 09:23:28;;;;;;;59.55;30.52;;;1.10;77.00;;;;;;5051547;28;20192;-70
2022/12/12 09:25:57;;;;;;;45.58;26.23;;;1.10;77.00;;;;;;5052532;28;20196;-70
2022/12/12 09:28:26;;;;;;;58.63;30.23;;;1.10;77.10;;;;;;5049950;28;20220;-72
2022/12/12 09:30:55;;;;;;;54.78;30.88;;;1.10;76.90;;;;;;5055955;28;20683;-72
2022/12/12 09:33:23;;;;;;;68.70;36.13;;;1.10;76.80;;;;;;5058907;28;20204;-69
2022/12/12 09:35:58;;;;;;;53.72;30.83;;;1.00;76.80;;;;;;5060420;28;20228;-72
2022/12/12 09:38:26;;;;;;;68.38;37.83;;;1.00;76.60;;;;;;5054650;28;20224;-73
2022/12/12 09:40:56;;;;;;;104.32;54.53;;;0.90;76.50;;;;;;5059432;28;20212;-72
2022/12/12 09:43:27;;;;;;;92.82;49.47;;;0.80;76.60;;;;;;5058934;28;21019;-71
2022/12/12 09:45:58;;;;;;;78.03;41.83;;;0.80;76.90;;;;;;5056705;28;20200;-71
2022/12/12 09:48:34;;;;;;;627.15;205.32;;;0.90;77.30;;;;;;5060737;28;20764;-70
2022/12/12 09:51:02;;;;;;;761.80;260.83;;;0.90;77.30;;;;;;5055503;28;20230;-70
2022/12/12 09:53:30;;;;;;;307.88;91.93;;;1.00;77.30;;;;;;5060963;28;20274;-70
2022/12/12 09:56:04;;;;;;;90.78;41.63;;;1.00;77.20;;;;;;5061425;28;20297;-70
2022/12/12 09:58:38;;;;;;;85.55;41.70;;;1.00;77.20;;;;;;5059992;28;20228;-71
2022/12/12 10:01:27;;;;;;;81.57;40.67;;;1.00;77.00;;;;;;5058414;28;20199;-71
2022/12/12 10:04:05;;;;;;;64.65;33.47;;;1.00;77.00;;;;;;5057634;28;20726;-71
2022/12/12 10:06:40;;;;;;;72.38;37.25;;;1.00;77.00;;;;;;5056272;28;21012;-72
2022/12/12 10:09:25;;;;;;;68.05;38.10;;;1.00;77.00;;;;;;5057050;28;20279;-69
2022/12/12 10:11:54;;;;;;;83.05;44.30;;;1.00;77.00;;;;;;5055120;28;20312;-72
2022/12/12 10:14:29;;;;;;;124.32;70.30;;;1.00;77.00;;;;;;5053853;28;20709;-72
2022/12/12 10:16:59;;;;;;;82.80;52.40;;;1.00;77.00;;;;;;5057015;28;20231;-71
2022/12/12 10:19:30;;;;;;;71.10;42.45;;;1.00;77.10;;;;;;5057247;28;20269;-72
2022/12/12 10:22:04;;;;;;;90.30;46.92;;;1.00;77.20;;;;;;5054213;28;20253;-71
2022/12/12 10:24:39;;;;;;;106.50;54.50;;;1.00;77.10;;;;;;5055984;28;20254;-71
2022/12/12 10:27:11;;;;;;;128.80;65.53;;;1.00;77.00;;;;;;5057009;28;20293;-71
2022/12/12 10:29:41;;;;;;;99.43;53.40;;;1.00;77.10;;;;;;5071185;28;20212;-70
2022/12/12 10:32:19;;;;;;;64.75;38.05;;;1.00;77.10;;;;;;5059820;28;20206;-73
2022/12/12 10:35:02;;;;;;;52.45;27.98;;;0.90;77.20;;;;;;5059238;28;20293;-71
2022/12/12 10:37:41;;;;;;;53.80;30.38;;;1.00;77.30;;;;;;5056699;28;20224;-69
2022/12/12 10:40:23;;;;;;;67.30;34.05;;;1.00;77.10;;;;;;5054147;28;20279;-70
2022/12/12 10:42:56;;;;;;;71.95;34.67;;;0.90;77.10;;;;;;5055581;28;20665;-70
2022/12/12 10:45:38;;;;;;;60.95;31.33;;;0.90;77.20;;;;;;5053884;28;20254;-71
2022/12/12 10:48:07;;;;;;;64.22;30.42;;;0.90;77.20;;;;;;5054524;28;20230;-70
2022/12/12 10:50:38;;;;;;;61.67;27.88;;;1.00;77.40;;;;;;5058826;28;20269;-70
2022/12/12 10:53:09;;;;;;;64.90;31.85;;;1.00;77.50;;;;;;5056334;28;20277;-71
2022/12/12 10:55:43;;;;;;;66.70;31.58;;;1.10;77.60;;;;;;5055959;28;20243;-71
2022/12/12 10:58:12;;;;;;;67.43;28.77;;;1.20;77.70;;;;;;5053405;28;20223;-71
2022/12/12 11:00:42;;;;;;;57.47;27.23;;;1.30;77.70;;;;;;5057054;28;20200;-71
2022/12/12 11:03:25;;;;;;;53.05;23.63;;;1.50;77.70;;;;;;5053135;28;20201;-69
2022/12/12 11:05:55;;;;;;;41.22;20.92;;;1.60;77.90;;;;;;5054884;28;20262;-71
2022/12/12 11:08:27;;;;;;;39.95;19.65;;;1.70;78.00;;;;;;5055068;28;20303;-72
2022/12/12 11:11:02;;;;;;;35.90;19.55;;;1.90;77.80;;;;;;5052217;28;20209;-72
2022/12/12 11:13:30;;;;;;;42.28;21.65;;;2.00;77.80;;;;;;5054064;28;20211;-73
2022/12/12 11:16:01;;;;;;;39.63;20.40;;;2.10;77.80;;;;;;5055475;28;20207;-70
2022/12/12 11:18:30;;;;;;;38.35;19.85;;;2.20;77.80;;;;;;5057105;28;20803;-72
2022/12/12 11:21:06;;;;;;;40.58;21.55;;;2.30;77.70;;;;;;5053722;28;20199;-73
2022/12/12 11:23:36;;;;;;;33.78;19.35;;;2.40;77.60;;;;;;5055524;28;20261;-72
2022/12/12 11:26:11;;;;;;;38.08;18.55;;;2.40;77.50;;;;;;5055087;28;20200;-72
2022/12/12 11:28:40;;;;;;;37.30;18.48;;;2.50;77.50;;;;;;5053571;28;20235;-71
2022/12/12 11:31:11;;;;;;;35.15;18.65;;;2.50;77.40;;;;;;5057271;28;20200;-72
2022/12/12 11:33:47;;;;;;;33.25;18.48;;;2.60;77.30;;;;;;5055878;28;20266;-70
2022/12/12 11:36:16;;;;;;;33.47;15.63;;;2.60;77.40;;;;;;5054984;28;20608;-71
2022/12/12 11:38:49;;;;;;;35.90;18.00;;;2.60;77.40;;;;;;5056962;28;20257;-69
2022/12/12 11:41:18;;;;;;;34.95;16.63;;;2.70;77.30;;;;;;5054443;28;20203;-72
2022/12/12 11:43:59;;;;;;;34.10;17.85;;;2.70;77.30;;;;;;5057443;28;20278;-71
2022/12/12 11:46:29;;;;;;;28.73;15.40;;;2.80;77.20;;;;;;5058351;28;20290;-71
2022/12/12 11:49:04;;;;;;;37.40;17.60;;;2.80;77.20;;;;;;5058123;28;20208;-72
2022/12/12 11:51:35;;;;;;;31.58;16.70;;;2.80;77.20;;;;;;5057127;28;20195;-72
2022/12/12 11:54:07;;;;;;;29.60;14.70;;;2.80;77.00;;;;;;5058715;28;20294;-71
2022/12/12 11:56:45;;;;;;;33.58;16.08;;;2.80;76.90;;;;;;5057128;28;20804;-71
2022/12/12 11:59:30;;;;;;;29.52;15.52;;;2.80;76.90;;;;;;5057534;28;20207;-71
2022/12/12 12:02:07;;;;;;;30.75;16.35;;;2.80;76.80;;;;;;5055340;28;20285;-71
2022/12/12 12:04:50;;;;;;;26.10;13.32;;;2.90;76.80;;;;;;5057719;28;20257;-71
2022/12/12 12:07:42;;;;;;;29.45;14.73;;;2.90;76.70;;;;;;5058105;28;20835;-71
2022/12/12 12:10:17;;;;;;;30.27;14.10;;;2.90;76.70;;;;;;5068621;28;20208;-71
2022/12/12 12:13:00;;;;;;;27.75;14.30;;;2.90;76.70;;;;;;5054831;28;20746;-70
2022/12/12 12:15:35;;;;;;;28.15;15.52;;;2.90;76.60;;;;;;5054770;28;20195;-70
2022/12/12 12:18:19;;;;;;;29.27;15.38;;;2.90;76.60;;;;;;5055173;28;20281;-70
2022/12/12 12:21:10;;;;;;;30.88;13.93;;;2.90;76.50;;;;;;5057713;28;20196;-69
2022/12/12 12:23:48;;;;;;;34.90;16.02;;;2.90;76.50;;;;;;5056645;28;20196;-71
2022/12/12 12:26:23;;;;;;;33.05;16.17;;;2.90;76.40;;;;;;5054763;28;20287;-71
2022/12/12 12:29:12;;;;;;;24.20;13.52;;;2.90;76.30;;;;;;5057107;28;20269;-72
2022/12/12 12:31:50;;;;;;;30.13;14.55;;;2.90;76.30;;;;;;5054156;28;20262;-71
2022/12/12 12:34:22;;;;;;;26.00;14.30;;;2.90;76.20;;;;;;5055054;28;20215;-72
2022/12/12 12:37:07;;;;;;;29.23;14.05;;;2.90;76.10;;;;;;5055060;28;20317;-71
2022/12/12 12:39:51;;;;;;;30.60;14.75;;;2.80;76.00;;;;;;5056112;28;20212;-68
2022/12/12 12:42:36;;;;;;;25.10;14.70;;;2.80;76.00;;;;;;5057212;28;20813;-71
2022/12/12 12:45:13;;;;;;;36.85;16.48;;;2.80;75.90;;;;;;5050468;28;20624;-71
2022/12/12 12:47:51;;;;;;;30.30;16.33;;;2.80;75.80;;;;;;5057137;28;20286;-74
2022/12/12 12:50:22;;;;;;;34.85;16.38;;;2.80;75.80;;;;;;5053553;28;20250;-72
2022/12/12 12:52:56;;;;;;;26.58;14.65;;;2.70;75.70;;;;;;5053300;28;20258;-71
2022/12/12 12:55:32;;;;;;;35.60;18.98;;;2.70;75.60;;;;;;5056098;28;20868;-71
2022/12/12 12:58:03;;;;;;;35.35;16.90;;;2.60;75.70;;;;;;5051219;28;20228;-70
2022/12/12 13:00:31;;;;;;;38.50;23.38;;;2.70;75.80;;;;;;5062456;28;20274;-72
2022/12/12 13:03:02;;;;;;;51.63;28.60;;;2.70;75.50;;;;;;5061657;28;20980;-71
2022/12/12 13:05:35;;;;;;;92.47;43.38;;;2.60;75.50;;;;;;5059596;28;20200;-70
2022/12/12 13:08:16;;;;;;;96.07;45.03;;;2.60;75.50;;;;;;5064414;28;20224;-71
2022/12/12 13:10:47;;;;;;;43.03;21.73;;;2.50;75.40;;;;;;5056108;28;20667;-72
2022/12/12 13:13:23;;;;;;;61.00;31.60;;;2.50;75.20;;;;;;5058219;28;20196;-70
2022/12/12 13:15:55;;;;;;;108.22;52.42;;;2.40;75.30;;;;;;5059324;28;20722;-71
2022/12/12 13:18:24;;;;;;;60.83;30.45;;;2.40;75.40;;;;;;5057751;28;20228;-72